createdAt,value
2018-02-24T00:00:38.130Z,32.47
2018-02-24T00:01:42.335Z,24.77
2018-02-24T00:02:46.598Z,23.45
2018-02-24T00:03:51.135Z,21.52
2018-02-24T00:04:56.442Z,23.17
2018-02-24T00:06:01.433Z,22.30
2018-02-24T00:07:05.690Z,27.02
2018-02-24T00:08:10.709Z,25.27
2018-02-24T00:09:15.747Z,19.73
2018-02-24T00:10:20.575Z,18.98
2018-02-24T00:11:24.845Z,27.98
2018-02-24T00:12:29.137Z,25.37
2018-02-24T00:13:33.388Z,20.42
2018-02-24T00:14:38.454Z,27.55
2018-02-24T00:15:42.651Z,22.00
2018-02-24T00:16:47.874Z,25.33
2018-02-24T00:17:52.202Z,19.48
2018-02-24T00:18:56.586Z,25.98
2018-02-24T00:20:01.563Z,22.37
2018-02-24T00:21:05.778Z,25.12
2018-02-24T00:22:10.054Z,19.60
2018-02-24T00:23:15.033Z,24.40
2018-02-24T00:24:19.728Z,21.75
2018-02-24T00:25:24.088Z,23.52
2018-02-24T00:26:28.401Z,24.50
2018-02-24T00:27:34.128Z,27.30
2018-02-24T00:28:38.320Z,23.52
2018-02-24T00:29:42.527Z,22.52
2018-02-24T00:30:46.724Z,22.02
2018-02-24T00:31:51.133Z,23.75
2018-02-24T00:32:55.427Z,20.23
2018-02-24T00:34:00.712Z,24.25
2018-02-24T00:35:05.006Z,29.65
2018-02-24T00:36:09.210Z,23.02
2018-02-24T00:37:13.446Z,23.27
2018-02-24T00:38:17.695Z,21.05
2018-02-24T00:39:23.046Z,21.05
2018-02-24T00:40:28.191Z,22.62
2018-02-24T00:41:32.398Z,27.20
2018-02-24T00:42:37.406Z,24.37
2018-02-24T00:43:41.615Z,19.42
2018-02-24T00:44:45.807Z,24.37
2018-02-24T00:45:50.004Z,25.00
2018-02-24T00:46:54.274Z,23.15
2018-02-24T00:47:59.011Z,25.98
2018-02-24T00:49:03.208Z,28.73
2018-02-24T00:50:08.159Z,22.05
2018-02-24T00:51:12.380Z,18.87
2018-02-24T00:52:16.586Z,25.80
2018-02-24T00:53:20.892Z,37.80
2018-02-24T00:54:25.911Z,24.05
2018-02-24T00:55:30.137Z,24.02
2018-02-24T00:56:34.359Z,24.17
2018-02-24T00:57:38.588Z,21.00
2018-02-24T00:58:42.852Z,29.77
2018-02-24T00:59:48.280Z,27.62
2018-02-24T01:00:53.320Z,21.42
2018-02-24T01:01:58.337Z,20.50
2018-02-24T01:03:03.313Z,22.35
2018-02-24T01:04:07.575Z,21.73
2018-02-24T01:05:12.575Z,20.25
2018-02-24T01:06:16.813Z,27.05
2018-02-24T01:07:21.890Z,26.98
2018-02-24T01:08:26.169Z,24.90
2018-02-24T01:09:31.218Z,18.00
2018-02-24T01:10:35.455Z,23.75
2018-02-24T01:11:39.714Z,25.98
2018-02-24T01:12:44.690Z,25.90
2018-02-24T01:13:48.998Z,26.60
2018-02-24T01:14:53.375Z,23.70
2018-02-24T01:15:58.507Z,25.00
2018-02-24T01:17:03.469Z,21.48
2018-02-24T01:18:07.697Z,25.95
2018-02-24T01:19:11.904Z,22.05
2018-02-24T01:20:16.148Z,21.05
2018-02-24T01:21:21.004Z,18.65
2018-02-24T01:22:25.508Z,26.75
2018-02-24T01:23:30.492Z,27.33
2018-02-24T01:24:34.694Z,27.08
2018-02-24T01:25:38.954Z,19.50
2018-02-24T01:26:43.188Z,18.02
2018-02-24T01:27:47.419Z,22.73
2018-02-24T01:28:51.711Z,23.52
2018-02-24T01:29:55.946Z,28.90
2018-02-24T01:31:00.185Z,23.67
2018-02-24T01:32:04.391Z,27.37
2018-02-24T01:33:08.675Z,25.30
2018-02-24T01:34:12.874Z,24.73
2018-02-24T01:35:17.102Z,26.67
2018-02-24T01:36:21.419Z,23.20
2018-02-24T01:37:25.683Z,27.33
2018-02-24T01:38:29.950Z,23.90
2018-02-24T01:39:34.145Z,30.15
2018-02-24T01:40:38.339Z,26.50
2018-02-24T01:41:42.575Z,30.00
2018-02-24T01:42:46.787Z,21.52
2018-02-24T01:43:52.032Z,27.08
2018-02-24T01:44:56.271Z,27.27
2018-02-24T01:46:00.475Z,22.08
2018-02-24T01:47:04.659Z,25.05
2018-02-24T01:48:08.839Z,24.15
2018-02-24T01:49:13.063Z,27.05
2018-02-24T01:50:17.783Z,22.55
2018-02-24T01:51:22.023Z,25.92
2018-02-24T01:52:26.251Z,30.98
2018-02-24T01:53:30.439Z,26.37
2018-02-24T01:54:34.652Z,25.77
2018-02-24T01:55:38.854Z,22.35
2018-02-24T01:56:43.052Z,21.62
2018-02-24T01:57:47.287Z,27.00
2018-02-24T01:58:51.613Z,27.73
2018-02-24T01:59:56.151Z,29.35
2018-02-24T02:01:00.335Z,21.77
2018-02-24T02:02:04.586Z,36.15
2018-02-24T02:03:09.590Z,23.98
2018-02-24T02:04:13.772Z,28.20
2018-02-24T02:05:18.672Z,29.75
2018-02-24T02:06:22.969Z,21.62
2018-02-24T02:07:27.228Z,26.83
2018-02-24T02:08:32.315Z,26.70
2018-02-24T02:09:37.268Z,28.45
2018-02-24T02:10:41.458Z,25.83
2018-02-24T02:11:45.639Z,28.17
2018-02-24T02:12:50.098Z,21.27
2018-02-24T02:13:54.487Z,28.95
2018-02-24T02:14:58.738Z,24.87
2018-02-24T02:16:02.953Z,27.27
2018-02-24T02:17:07.140Z,21.83
2018-02-24T02:18:11.427Z,26.15
2018-02-24T02:19:16.447Z,28.15
2018-02-24T02:20:21.099Z,24.75
2018-02-24T02:21:25.391Z,28.30
2018-02-24T02:22:30.352Z,27.25
2018-02-24T02:23:34.550Z,27.48
2018-02-24T02:24:38.796Z,24.87
2018-02-24T02:25:42.971Z,32.17
2018-02-24T02:26:47.292Z,27.17
2018-02-24T02:27:51.672Z,28.50
2018-02-24T02:28:56.702Z,24.73
2018-02-24T02:30:01.740Z,27.35
2018-02-24T02:31:06.701Z,26.75
2018-02-24T02:32:10.915Z,27.02
2018-02-24T02:33:15.128Z,29.45
2018-02-24T02:34:20.061Z,24.50
2018-02-24T02:35:25.231Z,24.65
2018-02-24T02:36:30.275Z,27.37
2018-02-24T02:37:34.512Z,22.45
2018-02-24T02:38:38.736Z,23.27
2018-02-24T02:39:42.971Z,25.95
2018-02-24T02:40:47.818Z,25.65
2018-02-24T02:41:53.044Z,28.58
2018-02-24T02:42:58.656Z,23.87
2018-02-24T02:44:02.874Z,23.52
2018-02-24T02:45:07.081Z,26.02
2018-02-24T02:46:11.375Z,25.92
2018-02-24T02:47:15.582Z,27.42
2018-02-24T02:48:20.309Z,23.87
2018-02-24T02:49:24.577Z,23.30
2018-02-24T02:50:29.634Z,27.45
2018-02-24T02:51:33.916Z,23.33
2018-02-24T02:52:38.137Z,29.20
2018-02-24T02:53:42.320Z,28.83
2018-02-24T02:54:46.571Z,30.33
2018-02-24T02:55:51.250Z,29.08
2018-02-24T02:56:56.377Z,29.73
2018-02-24T02:58:00.677Z,24.27
2018-02-24T02:59:04.997Z,26.33
2018-02-24T03:00:09.924Z,29.17
2018-02-24T03:01:14.116Z,26.42
2018-02-24T03:02:19.358Z,28.87
2018-02-24T03:03:23.702Z,24.80
2018-02-24T03:04:28.077Z,31.10
2018-02-24T03:05:32.374Z,20.00
2018-02-24T03:06:36.589Z,29.05
2018-02-24T03:07:40.847Z,24.70
2018-02-24T03:08:45.118Z,23.80
2018-02-24T03:09:49.468Z,28.75
2018-02-24T03:10:54.603Z,24.23
2018-02-24T03:11:58.907Z,20.20
2018-02-24T03:13:03.135Z,29.25
2018-02-24T03:14:07.363Z,29.40
2018-02-24T03:15:13.061Z,23.17
2018-02-24T03:16:17.264Z,22.90
2018-02-24T03:17:23.226Z,26.90
2018-02-24T03:18:27.532Z,24.55
2018-02-24T03:19:32.947Z,28.73
2018-02-24T03:20:37.918Z,35.38
2018-02-24T03:21:42.117Z,33.60
2018-02-24T03:22:46.312Z,27.65
2018-02-24T03:23:50.965Z,30.20
2018-02-24T03:24:55.643Z,34.72
2018-02-24T03:25:59.951Z,27.73
2018-02-24T03:27:04.942Z,29.58
2018-02-24T03:28:09.152Z,27.08
2018-02-24T03:29:13.362Z,20.37
2018-02-24T03:30:17.758Z,21.10
2018-02-24T03:31:23.435Z,26.52
2018-02-24T03:32:27.757Z,21.70
2018-02-24T03:33:32.827Z,31.90
2018-02-24T03:34:37.067Z,26.20
2018-02-24T03:35:41.332Z,25.48
2018-02-24T03:36:46.321Z,29.42
2018-02-24T03:37:51.570Z,29.52
2018-02-24T03:38:56.655Z,25.23
2018-02-24T03:40:00.927Z,22.15
2018-02-24T03:41:05.877Z,25.30
2018-02-24T03:42:10.118Z,25.60
2018-02-24T03:43:14.392Z,25.73
2018-02-24T03:44:19.673Z,27.55
2018-02-24T03:45:24.315Z,25.33
2018-02-24T03:46:29.510Z,25.45
2018-02-24T03:47:33.739Z,22.00
2018-02-24T03:48:37.966Z,26.60
2018-02-24T03:49:42.209Z,27.65
2018-02-24T03:50:47.655Z,29.73
2018-02-24T03:51:52.169Z,22.62
2018-02-24T03:52:56.481Z,25.33
2018-02-24T03:54:01.693Z,29.75
2018-02-24T03:55:05.876Z,27.35
2018-02-24T03:56:10.103Z,25.58
2018-02-24T03:57:14.336Z,29.90
2018-02-24T03:58:19.930Z,28.55
2018-02-24T03:59:25.096Z,27.15
2018-02-24T04:00:29.327Z,28.87
2018-02-24T04:01:34.289Z,29.85
2018-02-24T04:02:38.484Z,26.40
2018-02-24T04:03:42.739Z,28.02
2018-02-24T04:04:47.118Z,23.73
2018-02-24T04:05:51.358Z,24.08
2018-02-24T04:06:55.583Z,31.90
2018-02-24T04:07:59.816Z,24.63
2018-02-24T04:09:04.097Z,24.55
2018-02-24T04:10:08.311Z,34.53
2018-02-24T04:11:12.514Z,32.55
2018-02-24T04:12:16.736Z,25.98
2018-02-24T04:13:22.212Z,30.92
2018-02-24T04:14:27.438Z,28.83
2018-02-24T04:15:32.407Z,36.85
2018-02-24T04:16:36.623Z,29.27
2018-02-24T04:17:40.838Z,31.80
2018-02-24T04:18:45.100Z,29.42
2018-02-24T04:19:50.297Z,25.20
2018-02-24T04:20:54.882Z,36.47
2018-02-24T04:21:59.168Z,21.20
2018-02-24T04:23:04.160Z,28.02
2018-02-24T04:24:08.414Z,33.45
2018-02-24T04:25:13.399Z,27.50
2018-02-24T04:26:17.640Z,19.87
2018-02-24T04:27:22.499Z,30.90
2018-02-24T04:28:27.257Z,23.35
2018-02-24T04:29:31.523Z,29.73
2018-02-24T04:30:35.717Z,24.27
2018-02-24T04:31:39.919Z,28.87
2018-02-24T04:32:44.118Z,30.50
2018-02-24T04:33:48.510Z,21.20
2018-02-24T04:34:53.817Z,35.33
2018-02-24T04:35:58.253Z,29.00
2018-02-24T04:37:02.554Z,24.95
2018-02-24T04:38:06.739Z,32.60
2018-02-24T04:39:11.689Z,32.13
2018-02-24T04:40:15.963Z,25.50
2018-02-24T04:41:20.938Z,23.23
2018-02-24T04:42:25.210Z,35.42
2018-02-24T04:43:30.222Z,29.02
2018-02-24T04:44:34.411Z,29.80
2018-02-24T04:45:38.680Z,26.67
2018-02-24T04:46:42.906Z,27.92
2018-02-24T04:47:47.127Z,30.88
2018-02-24T04:48:52.245Z,26.30
2018-02-24T04:49:56.863Z,28.62
2018-02-24T04:51:01.238Z,34.72
2018-02-24T04:52:06.966Z,31.70
2018-02-24T04:53:11.325Z,26.15
2018-02-24T04:54:16.306Z,27.83
2018-02-24T04:55:20.706Z,27.05
2018-02-24T04:56:25.536Z,29.48
2018-02-24T04:57:30.014Z,32.65
2018-02-24T04:58:34.344Z,27.83
2018-02-24T04:59:38.553Z,30.60
2018-02-24T05:00:42.768Z,27.60
2018-02-24T05:01:47.465Z,26.08
2018-02-24T05:02:52.509Z,30.40
2018-02-24T05:03:56.830Z,26.85
2018-02-24T05:05:01.584Z,28.20
2018-02-24T05:06:05.785Z,27.42
2018-02-24T05:07:10.021Z,23.65
2018-02-24T05:08:15.777Z,22.48
2018-02-24T05:09:21.126Z,28.90
2018-02-24T05:10:25.559Z,26.80
2018-02-24T05:11:29.809Z,33.33
2018-02-24T05:12:34.082Z,28.90
2018-02-24T05:13:39.072Z,34.38
2018-02-24T05:14:43.260Z,27.20
2018-02-24T05:15:47.569Z,26.08
2018-02-24T05:16:52.666Z,30.45
2018-02-24T05:17:57.176Z,28.17
2018-02-24T05:19:01.388Z,24.12
2018-02-24T05:20:06.421Z,28.08
2018-02-24T05:21:11.380Z,32.20
2018-02-24T05:22:15.563Z,28.50
2018-02-24T05:23:20.730Z,25.02
2018-02-24T05:24:25.184Z,26.02
2018-02-24T05:25:29.497Z,27.48
2018-02-24T05:26:34.492Z,22.55
2018-02-24T05:27:38.715Z,31.02
2018-02-24T05:28:42.980Z,28.55
2018-02-24T05:29:47.241Z,25.17
2018-02-24T05:30:51.779Z,24.17
2018-02-24T05:31:56.053Z,25.15
2018-02-24T05:33:00.376Z,28.00
2018-02-24T05:34:04.605Z,28.50
2018-02-24T05:35:08.820Z,27.73
2018-02-24T05:36:13.056Z,27.70
2018-02-24T05:37:18.087Z,29.60
2018-02-24T05:38:23.090Z,28.12
2018-02-24T05:39:27.333Z,29.10
2018-02-24T05:40:31.565Z,36.60
2018-02-24T05:41:35.800Z,30.67
2018-02-24T05:42:40.007Z,26.98
2018-02-24T05:43:44.223Z,29.65
2018-02-24T05:44:48.480Z,33.35
2018-02-24T05:45:53.496Z,29.50
2018-02-24T05:46:59.575Z,29.17
2018-02-24T05:48:04.705Z,34.13
2018-02-24T05:49:09.703Z,28.75
2018-02-24T05:50:13.932Z,27.83
2018-02-24T05:51:19.034Z,26.73
2018-02-24T05:52:24.061Z,26.90
2018-02-24T05:53:29.827Z,25.60
2018-02-24T05:54:34.073Z,31.50
2018-02-24T05:55:38.293Z,23.42
2018-02-24T05:56:42.499Z,26.50
2018-02-24T05:57:46.743Z,23.35
2018-02-24T05:58:52.054Z,26.60
2018-02-24T05:59:56.380Z,24.85
2018-02-24T06:01:00.664Z,32.10
2018-02-24T06:02:05.624Z,29.63
2018-02-24T06:03:09.919Z,31.87
2018-02-24T06:04:14.143Z,22.52
2018-02-24T06:05:18.536Z,25.20
2018-02-24T06:06:23.512Z,33.80
2018-02-24T06:07:27.861Z,27.35
2018-02-24T06:08:32.833Z,25.60
2018-02-24T06:09:37.027Z,30.20
2018-02-24T06:10:41.272Z,28.80
2018-02-24T06:11:45.538Z,36.28
2018-02-24T06:12:49.961Z,33.05
2018-02-24T06:13:54.285Z,21.52
2018-02-24T06:14:58.540Z,24.33
2018-02-24T06:16:02.842Z,27.75
2018-02-24T06:17:07.114Z,28.55
2018-02-24T06:18:11.328Z,30.98
2018-02-24T06:19:15.581Z,23.33
2018-02-24T06:20:20.183Z,26.75
2018-02-24T06:21:24.513Z,23.67
2018-02-24T06:22:29.057Z,32.45
2018-02-24T06:23:33.264Z,22.40
2018-02-24T06:24:37.471Z,26.62
2018-02-24T06:25:41.668Z,27.95
2018-02-24T06:26:45.893Z,26.75
2018-02-24T06:27:51.343Z,27.40
2018-02-24T06:28:56.410Z,25.70
2018-02-24T06:30:00.641Z,28.10
2018-02-24T06:31:04.872Z,28.42
2018-02-24T06:32:09.217Z,25.35
2018-02-24T06:33:14.205Z,25.40
2018-02-24T06:34:18.708Z,29.30
2018-02-24T06:35:23.635Z,28.87
2018-02-24T06:36:27.952Z,28.08
2018-02-24T06:37:32.395Z,25.77
2018-02-24T06:38:36.620Z,26.77
2018-02-24T06:39:41.597Z,27.15
2018-02-24T06:40:45.811Z,27.98
2018-02-24T06:41:50.253Z,26.10
2018-02-24T06:42:54.609Z,29.15
2018-02-24T06:43:58.884Z,27.92
2018-02-24T06:45:03.872Z,22.95
2018-02-24T06:46:08.074Z,24.27
2018-02-24T06:47:12.311Z,27.08
2018-02-24T06:48:16.559Z,24.27
2018-02-24T06:49:21.042Z,26.70
2018-02-24T06:50:25.800Z,30.02
2018-02-24T06:51:30.072Z,26.98
2018-02-24T06:52:34.288Z,25.17
2018-02-24T06:53:38.483Z,24.48
2018-02-24T06:54:42.764Z,23.67
2018-02-24T06:55:47.993Z,34.35
2018-02-24T06:56:53.056Z,23.08
2018-02-24T06:57:57.633Z,24.08
2018-02-24T06:59:01.883Z,25.40
2018-02-24T07:00:06.084Z,28.85
2018-02-24T07:01:10.355Z,25.80
2018-02-24T07:02:14.593Z,23.98
2018-02-24T07:03:20.144Z,26.40
2018-02-24T07:04:24.402Z,25.00
2018-02-24T07:05:30.476Z,22.25
2018-02-24T07:06:34.706Z,22.60
2018-02-24T07:07:39.688Z,32.88
2018-02-24T07:08:43.891Z,26.05
2018-02-24T07:09:48.864Z,26.30
2018-02-24T07:10:53.931Z,27.83
2018-02-24T07:11:58.160Z,22.42
2018-02-24T07:13:02.433Z,22.92
2018-02-24T07:14:07.380Z,24.33
2018-02-24T07:15:11.592Z,24.92
2018-02-24T07:16:15.869Z,25.27
2018-02-24T07:17:21.064Z,24.23
2018-02-24T07:18:26.204Z,26.35
2018-02-24T07:19:30.505Z,25.55
2018-02-24T07:20:34.728Z,30.12
2018-02-24T07:21:38.955Z,20.58
2018-02-24T07:22:43.298Z,22.27
2018-02-24T07:23:48.326Z,21.87
2018-02-24T07:24:52.762Z,24.33
2018-02-24T07:25:57.263Z,23.87
2018-02-24T07:27:01.560Z,21.30
2018-02-24T07:28:06.512Z,28.08
2018-02-24T07:29:10.761Z,19.02
2018-02-24T07:30:15.633Z,25.92
2018-02-24T07:31:20.758Z,21.65
2018-02-24T07:32:25.146Z,21.75
2018-02-24T07:33:30.152Z,31.77
2018-02-24T07:34:34.373Z,24.83
2018-02-24T07:35:38.587Z,33.38
2018-02-24T07:36:42.834Z,19.70
2018-02-24T07:37:48.270Z,25.10
2018-02-24T07:38:54.330Z,22.65
2018-02-24T07:39:58.611Z,22.52
2018-02-24T07:41:02.803Z,25.50
2018-02-24T07:42:06.992Z,22.70
2018-02-24T07:43:11.265Z,23.58
2018-02-24T07:44:15.448Z,18.10
2018-02-24T07:45:19.857Z,20.75
2018-02-24T07:46:24.277Z,24.95
2018-02-24T07:47:29.183Z,25.30
2018-02-24T07:48:33.505Z,21.45
2018-02-24T07:49:37.715Z,26.25
2018-02-24T07:50:41.904Z,22.50
2018-02-24T07:51:46.127Z,20.88
2018-02-24T07:52:50.586Z,23.92
2018-02-24T07:53:54.852Z,25.23
2018-02-24T07:54:59.130Z,21.30
2018-02-24T07:56:04.091Z,21.60
2018-02-24T07:57:08.287Z,22.85
2018-02-24T07:58:12.539Z,22.73
2018-02-24T07:59:16.807Z,24.37
2018-02-24T08:00:21.782Z,24.87
2018-02-24T08:01:26.057Z,24.42
2018-02-24T08:02:30.272Z,20.00
2018-02-24T08:03:34.563Z,30.05
2018-02-24T08:04:39.588Z,22.80
2018-02-24T08:05:44.611Z,25.70
2018-02-24T08:06:49.743Z,19.23
2018-02-24T08:07:54.294Z,23.05
2018-02-24T08:08:58.541Z,21.20
2018-02-24T08:10:02.900Z,22.17
2018-02-24T08:11:07.892Z,29.73
2018-02-24T08:12:12.075Z,24.25
2018-02-24T08:13:16.280Z,23.33
2018-02-24T08:14:20.632Z,21.30
2018-02-24T08:15:25.199Z,13.45
2018-02-24T08:16:29.455Z,16.52
2018-02-24T08:17:33.673Z,17.62
2018-02-24T08:18:37.880Z,18.48
2018-02-24T08:19:42.107Z,22.25
2018-02-24T08:20:46.370Z,21.35
2018-02-24T08:21:50.678Z,23.70
2018-02-24T08:22:54.968Z,29.83
2018-02-24T08:23:59.191Z,19.62
2018-02-24T08:25:03.453Z,19.23
2018-02-24T08:26:07.683Z,19.85
2018-02-24T08:27:11.868Z,20.75
2018-02-24T08:28:16.084Z,16.65
2018-02-24T08:29:20.390Z,17.92
2018-02-24T08:30:24.600Z,17.65
2018-02-24T08:31:28.864Z,18.37
2018-02-24T08:32:33.349Z,18.77
2018-02-24T08:33:37.537Z,19.55
2018-02-24T08:34:41.753Z,16.40
2018-02-24T08:35:45.981Z,18.60
2018-02-24T08:36:50.307Z,15.10
2018-02-24T08:37:54.679Z,17.77
2018-02-24T08:38:58.904Z,22.95
2018-02-24T08:40:03.120Z,21.02
2018-02-24T08:41:07.311Z,15.77
2018-02-24T08:42:11.515Z,18.92
2018-02-24T08:43:15.777Z,18.02
2018-02-24T08:44:20.880Z,14.38
2018-02-24T08:45:25.422Z,20.62
2018-02-24T08:46:30.434Z,16.98
2018-02-24T08:47:34.653Z,15.73
2018-02-24T08:48:38.948Z,22.23
2018-02-24T08:49:43.135Z,19.52
2018-02-24T08:50:47.968Z,17.40
2018-02-24T08:51:52.960Z,19.55
2018-02-24T08:52:57.965Z,11.38
2018-02-24T08:54:03.036Z,18.12
2018-02-24T08:55:07.243Z,21.48
2018-02-24T08:56:11.465Z,20.45
2018-02-24T08:57:15.662Z,17.92
2018-02-24T08:58:20.094Z,16.50
2018-02-24T08:59:25.008Z,15.25
2018-02-24T09:00:29.342Z,20.42
2018-02-24T09:01:33.599Z,20.30
2018-02-24T09:02:37.777Z,13.80
2018-02-24T09:03:42.040Z,18.45
2018-02-24T09:04:47.044Z,20.02
2018-02-24T09:05:53.327Z,17.17
2018-02-24T09:06:57.605Z,16.87
2018-02-24T09:08:02.624Z,13.77
2018-02-24T09:09:06.838Z,13.18
2018-02-24T09:10:11.056Z,16.12
2018-02-24T09:11:15.305Z,14.52
2018-02-24T09:12:20.466Z,18.12
2018-02-24T09:13:25.084Z,14.25
2018-02-24T09:14:29.488Z,16.50
2018-02-24T09:15:33.729Z,17.77
2018-02-24T09:16:37.935Z,19.27
2018-02-24T09:17:42.114Z,18.00
2018-02-24T09:18:47.148Z,17.90
2018-02-24T09:19:51.764Z,16.83
2018-02-24T09:20:56.066Z,18.95
2018-02-24T09:22:00.406Z,17.48
2018-02-24T09:23:05.365Z,17.12
2018-02-24T09:24:09.596Z,21.77
2018-02-24T09:25:13.780Z,13.80
2018-02-24T09:26:18.855Z,13.00
2018-02-24T09:27:23.673Z,55.42
2018-02-24T09:28:27.954Z,14.50
2018-02-24T09:29:32.143Z,14.90
2018-02-24T09:30:36.422Z,13.82
2018-02-24T09:31:41.427Z,14.40
2018-02-24T09:32:45.658Z,17.27
2018-02-24T09:33:50.879Z,17.52
2018-02-24T09:34:55.278Z,16.23
2018-02-24T09:36:01.229Z,17.55
2018-02-24T09:37:05.463Z,38.85
2018-02-24T09:38:10.492Z,16.60
2018-02-24T09:39:15.477Z,18.17
2018-02-24T09:40:20.378Z,16.08
2018-02-24T09:41:24.674Z,15.43
2018-02-24T09:42:29.297Z,13.45
2018-02-24T09:43:33.547Z,14.18
2018-02-24T09:44:37.744Z,13.82
2018-02-24T09:45:42.007Z,13.57
2018-02-24T09:46:46.333Z,23.83
2018-02-24T09:47:51.648Z,18.60
2018-02-24T09:48:56.679Z,17.42
2018-02-24T09:50:01.322Z,16.75
2018-02-24T09:51:06.344Z,16.02
2018-02-24T09:52:10.544Z,18.55
2018-02-24T09:53:14.814Z,17.30
2018-02-24T09:54:19.644Z,13.82
2018-02-24T09:55:24.243Z,16.85
2018-02-24T09:56:28.947Z,16.27
2018-02-24T09:57:33.171Z,13.82
2018-02-24T09:58:37.383Z,15.13
2018-02-24T09:59:41.564Z,13.10
2018-02-24T10:00:45.777Z,14.68
2018-02-24T10:01:50.984Z,24.98
2018-02-24T10:02:56.170Z,15.63
2018-02-24T10:04:00.466Z,20.33
2018-02-24T10:05:05.456Z,11.20
2018-02-24T10:06:09.633Z,14.93
2018-02-24T10:07:13.893Z,20.60
2018-02-24T10:08:18.709Z,13.38
2018-02-24T10:09:23.169Z,13.57
2018-02-24T10:10:27.593Z,33.83
2018-02-24T10:11:31.874Z,12.57
2018-02-24T10:12:36.872Z,10.13
2018-02-24T10:13:41.052Z,10.65
2018-02-24T10:14:45.364Z,40.83
2018-02-24T10:15:49.795Z,14.18
2018-02-24T10:16:54.117Z,13.40
2018-02-24T10:17:58.421Z,12.77
2018-02-24T10:19:02.646Z,12.07
2018-02-24T10:20:06.862Z,8.75
2018-02-24T10:21:11.098Z,10.82
2018-02-24T10:22:15.318Z,11.15
2018-02-24T10:23:19.683Z,11.73
2018-02-24T10:24:24.080Z,16.08
2018-02-24T10:25:28.565Z,13.85
2018-02-24T10:26:33.707Z,12.70
2018-02-24T10:27:38.692Z,9.10
2018-02-24T10:28:42.943Z,10.88
2018-02-24T10:29:48.121Z,9.23
2018-02-24T10:30:52.790Z,10.25
2018-02-24T10:31:57.852Z,20.48
2018-02-24T10:33:02.069Z,12.70
2018-02-24T10:34:06.312Z,7.25
2018-02-24T10:35:10.514Z,10.60
2018-02-24T10:36:14.748Z,13.55
2018-02-24T10:37:19.211Z,33.72
2018-02-24T10:38:23.761Z,14.77
2018-02-24T10:39:28.882Z,14.77
2018-02-24T10:40:33.080Z,16.08
2018-02-24T10:41:37.284Z,12.37
2018-02-24T10:42:41.493Z,10.38
2018-02-24T10:43:45.663Z,15.35
2018-02-24T10:44:50.398Z,12.90
2018-02-24T10:45:55.528Z,8.65
2018-02-24T10:47:01.093Z,7.78
2018-02-24T10:48:05.422Z,10.45
2018-02-24T10:49:15.626Z,7.65
2018-02-24T10:50:20.784Z,11.18
2018-02-24T10:51:25.094Z,7.97
2018-02-24T10:52:30.168Z,10.40
2018-02-24T10:53:34.433Z,14.43
2018-02-24T10:54:38.634Z,9.67
2018-02-24T10:55:43.652Z,10.15
2018-02-24T10:56:48.366Z,9.20
2018-02-24T10:57:53.118Z,11.60
2018-02-24T10:58:57.442Z,8.50
2018-02-24T11:00:02.601Z,10.48
2018-02-24T11:01:06.948Z,11.50
2018-02-24T11:02:11.124Z,9.57
2018-02-24T11:03:15.317Z,9.23
2018-02-24T11:04:19.760Z,10.45
2018-02-24T11:05:24.091Z,10.10
2018-02-24T11:06:28.885Z,9.27
2018-02-24T11:07:33.090Z,5.82
2018-02-24T11:08:37.296Z,13.17
2018-02-24T11:09:41.530Z,8.00
2018-02-24T11:10:45.822Z,15.18
2018-02-24T11:11:50.709Z,6.90
2018-02-24T11:12:55.137Z,8.27
2018-02-24T11:14:00.152Z,8.88
2018-02-24T11:15:05.182Z,9.43
2018-02-24T11:16:09.410Z,9.37
2018-02-24T11:17:14.366Z,10.25
2018-02-24T11:18:19.227Z,5.35
2018-02-24T11:19:24.323Z,15.27
2018-02-24T11:20:30.782Z,9.32
2018-02-24T11:21:35.004Z,8.55
2018-02-24T11:22:39.213Z,9.50
2018-02-24T11:23:43.429Z,10.00
2018-02-24T11:24:47.744Z,9.05
2018-02-24T11:25:52.361Z,10.73
2018-02-24T11:26:57.964Z,10.07
2018-02-24T11:28:02.924Z,8.65
2018-02-24T11:29:07.442Z,12.70
2018-02-24T11:30:11.664Z,7.07
2018-02-24T11:31:15.918Z,7.93
2018-02-24T11:32:20.129Z,9.02
2018-02-24T11:33:24.405Z,11.07
2018-02-24T11:34:28.708Z,10.23
2018-02-24T11:35:32.948Z,8.55
2018-02-24T11:36:37.151Z,8.65
2018-02-24T11:37:41.374Z,11.57
2018-02-24T11:38:45.644Z,8.05
2018-02-24T11:39:50.764Z,9.25
2018-02-24T11:40:55.422Z,7.47
2018-02-24T11:42:00.230Z,7.68
2018-02-24T11:43:04.433Z,9.02
2018-02-24T11:44:08.672Z,7.55
2018-02-24T11:45:12.876Z,6.68
2018-02-24T11:46:17.116Z,9.88
2018-02-24T11:47:22.313Z,8.55
2018-02-24T11:48:26.541Z,8.02
2018-02-24T11:49:30.893Z,10.82
2018-02-24T11:50:35.116Z,8.88
2018-02-24T11:51:40.117Z,9.00
2018-02-24T11:52:44.329Z,11.43
2018-02-24T11:53:48.763Z,7.93
2018-02-24T11:54:53.019Z,7.57
2018-02-24T11:55:57.234Z,7.12
2018-02-24T11:57:01.475Z,9.23
2018-02-24T11:58:05.709Z,10.17
2018-02-24T11:59:09.892Z,10.85
2018-02-24T12:00:14.065Z,10.90
2018-02-24T12:01:18.288Z,8.70
2018-02-24T12:02:22.600Z,8.57
2018-02-24T12:03:26.830Z,11.05
2018-02-24T12:04:31.032Z,8.47
2018-02-24T12:05:35.227Z,8.77
2018-02-24T12:06:39.424Z,8.07
2018-02-24T12:07:44.436Z,10.53
2018-02-24T12:08:49.161Z,5.00
2018-02-24T12:09:54.294Z,16.40
2018-02-24T12:10:59.300Z,9.80
2018-02-24T12:12:03.501Z,8.17
2018-02-24T12:13:07.743Z,7.45
2018-02-24T12:14:12.677Z,5.55
2018-02-24T12:15:18.839Z,8.50
2018-02-24T12:16:23.798Z,7.75
2018-02-24T12:17:27.963Z,5.62
2018-02-24T12:18:32.185Z,6.80
2018-02-24T12:19:37.157Z,6.03
2018-02-24T12:20:41.448Z,8.90
2018-02-24T12:21:45.678Z,7.57
2018-02-24T12:22:50.653Z,5.25
2018-02-24T12:23:55.691Z,6.53
2018-02-24T12:25:00.735Z,8.50
2018-02-24T12:26:04.984Z,6.20
2018-02-24T12:27:09.204Z,8.00
2018-02-24T12:28:13.408Z,12.07
2018-02-24T12:29:17.707Z,12.05
2018-02-24T12:30:22.001Z,7.65
2018-02-24T12:31:26.234Z,10.40
2018-02-24T12:32:30.467Z,6.70
2018-02-24T12:33:34.704Z,12.32
2018-02-24T12:34:38.897Z,4.43
2018-02-24T12:35:43.091Z,9.13
2018-02-24T12:36:47.989Z,5.30
2018-02-24T12:37:52.246Z,14.68
2018-02-24T12:38:56.439Z,6.43
2018-02-24T12:40:00.656Z,6.87
2018-02-24T12:41:04.894Z,4.70
2018-02-24T12:42:09.871Z,7.82
2018-02-24T12:43:14.109Z,7.43
2018-02-24T12:44:18.463Z,3.15
2018-02-24T12:45:22.839Z,7.95
2018-02-24T12:46:27.064Z,4.47
2018-02-24T12:47:31.262Z,8.43
2018-02-24T12:48:35.452Z,7.30
2018-02-24T12:49:39.801Z,5.78
2018-02-24T12:50:43.950Z,6.73
2018-02-24T12:51:48.166Z,6.82
2018-02-24T12:52:52.373Z,6.05
2018-02-24T12:53:56.779Z,6.50
2018-02-24T12:55:01.057Z,8.45
2018-02-24T12:56:05.267Z,5.27
2018-02-24T12:57:09.440Z,7.18
2018-02-24T12:58:13.657Z,8.55
2018-02-24T12:59:17.867Z,9.00
2018-02-24T13:00:22.400Z,6.80
2018-02-24T13:01:26.669Z,10.07
2018-02-24T13:02:31.749Z,6.85
2018-02-24T13:03:36.193Z,6.60
2018-02-24T13:04:41.160Z,7.05
2018-02-24T13:05:45.356Z,8.38
2018-02-24T13:06:51.105Z,8.00
2018-02-24T13:07:55.671Z,13.02
2018-02-24T13:09:00.812Z,5.87
2018-02-24T13:10:05.012Z,10.45
2018-02-24T13:11:09.188Z,6.30
2018-02-24T13:12:13.399Z,7.22
2018-02-24T13:13:18.462Z,4.87
2018-02-24T13:14:25.027Z,7.12
2018-02-24T13:15:30.112Z,6.95
2018-02-24T13:16:35.056Z,9.88
2018-02-24T13:17:39.288Z,10.27
2018-02-24T13:18:43.490Z,9.65
2018-02-24T13:19:48.219Z,8.32
2018-02-24T13:20:53.334Z,6.72
2018-02-24T13:21:57.607Z,7.40
2018-02-24T13:23:01.878Z,12.00
2018-02-24T13:24:06.110Z,12.80
2018-02-24T13:25:10.347Z,6.97
2018-02-24T13:26:15.326Z,16.67
2018-02-24T13:27:20.366Z,7.30
2018-02-24T13:28:24.629Z,6.10
2018-02-24T13:29:29.596Z,11.00
2018-02-24T13:30:33.835Z,8.53
2018-02-24T13:31:38.045Z,6.00
2018-02-24T13:32:42.258Z,6.25
2018-02-24T13:33:46.509Z,10.70
2018-02-24T13:34:50.881Z,5.80
2018-02-24T13:35:55.318Z,7.75
2018-02-24T13:36:59.732Z,4.62
2018-02-24T13:38:04.882Z,8.10
2018-02-24T13:39:10.128Z,6.90
2018-02-24T13:40:15.881Z,4.57
2018-02-24T13:41:20.340Z,6.53
2018-02-24T13:42:24.922Z,7.35
2018-02-24T13:43:29.220Z,8.43
2018-02-24T13:44:33.432Z,7.90
2018-02-24T13:45:37.612Z,8.75
2018-02-24T13:46:41.827Z,9.68
2018-02-24T13:47:46.039Z,6.85
2018-02-24T13:48:51.504Z,6.25
2018-02-24T13:49:55.756Z,7.10
2018-02-24T13:51:00.335Z,8.57
2018-02-24T13:52:05.337Z,7.80
2018-02-24T13:53:09.532Z,6.20
2018-02-24T13:54:13.713Z,9.18
2018-02-24T13:55:18.045Z,9.10
2018-02-24T13:56:22.442Z,8.88